sensor_id;sensor_type;location;lat;lon;timestamp;temperature;humidity
1453;DHT22;720;47.738;7.998;2023-08-31T00:01:39;13.70;99.90
1453;DHT22;720;47.738;7.998;2023-08-31T00:04:05;14.00;99.90
1453;DHT22;720;47.738;7.998;2023-08-31T00:06:33;13.90;99.90
1453;DHT22;720;47.738;7.998;2023-08-31T00:08:59;13.90;99.90
1453;DHT22;720;47.738;7.998;2023-08-31T00:11:25;13.80;99.90
1453;DHT22;720;47.738;7.998;2023-08-31T00:13:51;13.80;99.90
1453;DHT22;720;47.738;7.998;2023-08-31T00:16:19;13.90;99.90
1453;DHT22;720;47.738;7.998;2023-08-31T00:18:49;13.80;99.90
1453;DHT22;720;47.738;7.998;2023-08-31T00:21:14;13.70;99.90
1453;DHT22;720;47.738;7.998;2023-08-31T00:23:40;13.70;99.90
1453;DHT22;720;47.738;7.998;2023-08-31T00:26:05;13.70;99.90
1453;DHT22;720;47.738;7.998;2023-08-31T00:28:32;13.80;99.90
1453;DHT22;720;47.738;7.998;2023-08-31T00:31:01;13.90;99.90
1453;DHT22;720;47.738;7.998;2023-08-31T00:33:29;13.80;99.90
1453;DHT22;720;47.738;7.998;2023-08-31T00:35:54;13.80;99.90
1453;DHT22;720;47.738;7.998;2023-08-31T00:38:22;13.80;99.90
1453;DHT22;720;47.738;7.998;2023-08-31T00:40:48;13.80;99.90
1453;DHT22;720;47.738;7.998;2023-08-31T00:43:14;13.80;99.90
1453;DHT22;720;47.738;7.998;2023-08-31T00:45:48;13.80;99.90
1453;DHT22;720;47.738;7.998;2023-08-31T00:48:16;13.80;99.90
1453;DHT22;720;47.738;7.998;2023-08-31T00:50:45;13.80;99.90
1453;DHT22;720;47.738;7.998;2023-08-31T00:53:12;13.90;99.90
1453;DHT22;720;47.738;7.998;2023-08-31T00:55:37;13.90;99.90
1453;DHT22;720;47.738;7.998;2023-08-31T00:58:06;13.80;99.90
1453;DHT22;720;47.738;7.998;2023-08-31T01:00:40;13.90;99.90
1453;DHT22;720;47.738;7.998;2023-08-31T01:03:14;13.80;99.90
1453;DHT22;720;47.738;7.998;2023-08-31T01:06:02;13.70;99.90
1453;DHT22;720;47.738;7.998;2023-08-31T01:11:24;13.70;99.90
1453;DHT22;720;47.738;7.998;2023-08-31T01:14:12;13.80;99.90
1453;DHT22;720;47.738;7.998;2023-08-31T01:16:42;13.60;99.90
1453;DHT22;720;47.738;7.998;2023-08-31T01:19:30;13.60;99.90
1453;DHT22;720;47.738;7.998;2023-08-31T01:22:00;13.70;99.90
1453;DHT22;720;47.738;7.998;2023-08-31T01:24:26;13.60;99.90
1453;DHT22;720;47.738;7.998;2023-08-31T01:26:53;13.70;99.90
1453;DHT22;720;47.738;7.998;2023-08-31T01:29:19;13.70;99.90
1453;DHT22;720;47.738;7.998;2023-08-31T01:31:44;13.70;99.90
1453;DHT22;720;47.738;7.998;2023-08-31T01:34:10;13.60;99.90
1453;DHT22;720;47.738;7.998;2023-08-31T01:36:38;13.60;99.90
1453;DHT22;720;47.738;7.998;2023-08-31T01:39:17;13.60;99.90
1453;DHT22;720;47.738;7.998;2023-08-31T01:41:50;13.30;99.90
1453;DHT22;720;47.738;7.998;2023-08-31T01:44:18;13.50;99.90
1453;DHT22;720;47.738;7.998;2023-08-31T01:46:52;13.50;99.90
1453;DHT22;720;47.738;7.998;2023-08-31T01:49:21;13.40;99.90
1453;DHT22;720;47.738;7.998;2023-08-31T01:51:47;13.10;99.90
1453;DHT22;720;47.738;7.998;2023-08-31T01:54:13;13.20;99.90
1453;DHT22;720;47.738;7.998;2023-08-31T01:56:38;13.30;99.90
1453;DHT22;720;47.738;7.998;2023-08-31T01:59:04;13.30;99.90
1453;DHT22;720;47.738;7.998;2023-08-31T02:01:32;13.40;99.90
1453;DHT22;720;47.738;7.998;2023-08-31T02:03:58;13.50;99.90
1453;DHT22;720;47.738;7.998;2023-08-31T02:06:23;13.50;99.90
1453;DHT22;720;47.738;7.998;2023-08-31T02:08:49;13.50;99.90
1453;DHT22;720;47.738;7.998;2023-08-31T02:11:14;13.50;99.90
1453;DHT22;720;47.738;7.998;2023-08-31T02:13:41;13.60;99.90
1453;DHT22;720;47.738;7.998;2023-08-31T02:16:07;13.50;99.90
1453;DHT22;720;47.738;7.998;2023-08-31T02:18:33;13.50;99.90
1453;DHT22;720;47.738;7.998;2023-08-31T02:20:58;13.50;99.90
1453;DHT22;720;47.738;7.998;2023-08-31T02:23:24;13.50;99.90
1453;DHT22;720;47.738;7.998;2023-08-31T02:25:49;13.60;99.90
1453;DHT22;720;47.738;7.998;2023-08-31T02:28:15;13.60;99.90
1453;DHT22;720;47.738;7.998;2023-08-31T02:30:44;13.50;99.90
1453;DHT22;720;47.738;7.998;2023-08-31T02:35:35;13.40;99.90
1453;DHT22;720;47.738;7.998;2023-08-31T02:38:01;13.50;99.90
1453;DHT22;720;47.738;7.998;2023-08-31T02:40:27;13.60;99.90
1453;DHT22;720;47.738;7.998;2023-08-31T02:42:53;13.60;99.90
1453;DHT22;720;47.738;7.998;2023-08-31T02:45:19;13.60;99.90
1453;DHT22;720;47.738;7.998;2023-08-31T02:47:44;13.60;99.90
1453;DHT22;720;47.738;7.998;2023-08-31T02:50:10;13.60;99.90
1453;DHT22;720;47.738;7.998;2023-08-31T02:52:35;13.70;99.90
1453;DHT22;720;47.738;7.998;2023-08-31T02:55:01;13.60;99.90
1453;DHT22;720;47.738;7.998;2023-08-31T02:57:27;13.60;99.90
1453;DHT22;720;47.738;7.998;2023-08-31T02:59:53;13.50;99.90
1453;DHT22;720;47.738;7.998;2023-08-31T03:02:18;13.60;99.90
1453;DHT22;720;47.738;7.998;2023-08-31T03:04:44;13.60;99.90
1453;DHT22;720;47.738;7.998;2023-08-31T03:07:10;13.60;99.90
1453;DHT22;720;47.738;7.998;2023-08-31T03:09:39;13.50;99.90
1453;DHT22;720;47.738;7.998;2023-08-31T03:12:05;13.50;99.90
1453;DHT22;720;47.738;7.998;2023-08-31T03:14:31;13.50;99.90
1453;DHT22;720;47.738;7.998;2023-08-31T03:16:56;13.50;99.90
1453;DHT22;720;47.738;7.998;2023-08-31T03:19:22;13.40;99.90
1453;DHT22;720;47.738;7.998;2023-08-31T03:21:49;13.00;99.90
1453;DHT22;720;47.738;7.998;2023-08-31T03:24:15;13.20;99.90
1453;DHT22;720;47.738;7.998;2023-08-31T03:26:41;13.10;99.90
1453;DHT22;720;47.738;7.998;2023-08-31T03:29:06;13.00;99.90
1453;DHT22;720;47.738;7.998;2023-08-31T03:31:32;12.90;99.90
1453;DHT22;720;47.738;7.998;2023-08-31T03:33:57;12.80;99.90
1453;DHT22;720;47.738;7.998;2023-08-31T03:36:23;12.70;99.90
1453;DHT22;720;47.738;7.998;2023-08-31T03:38:49;12.70;99.90
1453;DHT22;720;47.738;7.998;2023-08-31T03:41:15;12.70;99.90
1453;DHT22;720;47.738;7.998;2023-08-31T03:43:40;12.70;99.90
1453;DHT22;720;47.738;7.998;2023-08-31T03:46:06;12.70;99.90
1453;DHT22;720;47.738;7.998;2023-08-31T03:48:32;12.50;99.90
1453;DHT22;720;47.738;7.998;2023-08-31T03:50:57;12.50;99.90
1453;DHT22;720;47.738;7.998;2023-08-31T03:53:23;12.40;99.90
1453;DHT22;720;47.738;7.998;2023-08-31T03:55:49;12.50;99.90
1453;DHT22;720;47.738;7.998;2023-08-31T03:58:14;12.50;99.90
1453;DHT22;720;47.738;7.998;2023-08-31T04:00:40;12.60;99.90
1453;DHT22;720;47.738;7.998;2023-08-31T04:03:06;12.60;99.90
1453;DHT22;720;47.738;7.998;2023-08-31T04:05:32;12.50;99.90
1453;DHT22;720;47.738;7.998;2023-08-31T04:07:59;12.50;99.90
1453;DHT22;720;47.738;7.998;2023-08-31T04:10:25;12.50;99.90
1453;DHT22;720;47.738;7.998;2023-08-31T04:12:51;12.50;99.90
1453;DHT22;720;47.738;7.998;2023-08-31T04:15:17;12.50;99.90
1453;DHT22;720;47.738;7.998;2023-08-31T04:17:43;12.50;99.90
1453;DHT22;720;47.738;7.998;2023-08-31T04:20:10;12.50;99.90
1453;DHT22;720;47.738;7.998;2023-08-31T04:22:35;12.60;99.90
1453;DHT22;720;47.738;7.998;2023-08-31T04:25:01;12.60;99.90
1453;DHT22;720;47.738;7.998;2023-08-31T04:27:27;12.50;99.90
1453;DHT22;720;47.738;7.998;2023-08-31T04:29:55;12.50;99.90
1453;DHT22;720;47.738;7.998;2023-08-31T04:32:21;12.50;99.90
1453;DHT22;720;47.738;7.998;2023-08-31T04:34:46;12.50;99.90
1453;DHT22;720;47.738;7.998;2023-08-31T04:37:12;12.50;99.90
1453;DHT22;720;47.738;7.998;2023-08-31T04:39:37;12.40;99.90
1453;DHT22;720;47.738;7.998;2023-08-31T04:42:03;12.40;99.90
1453;DHT22;720;47.738;7.998;2023-08-31T04:44:29;12.30;99.90
1453;DHT22;720;47.738;7.998;2023-08-31T04:46:55;12.40;99.90
1453;DHT22;720;47.738;7.998;2023-08-31T04:49:21;12.40;99.90
1453;DHT22;720;47.738;7.998;2023-08-31T04:51:46;12.40;99.90
1453;DHT22;720;47.738;7.998;2023-08-31T04:54:12;12.50;99.90
1453;DHT22;720;47.738;7.998;2023-08-31T04:56:38;12.50;99.90
1453;DHT22;720;47.738;7.998;2023-08-31T04:59:03;12.50;99.90
1453;DHT22;720;47.738;7.998;2023-08-31T05:01:29;12.50;99.90
1453;DHT22;720;47.738;7.998;2023-08-31T05:03:55;12.50;99.90
1453;DHT22;720;47.738;7.998;2023-08-31T05:06:20;12.50;99.90
1453;DHT22;720;47.738;7.998;2023-08-31T05:08:49;12.50;99.90
1453;DHT22;720;47.738;7.998;2023-08-31T05:11:15;12.60;99.90
1453;DHT22;720;47.738;7.998;2023-08-31T05:13:41;12.80;99.90
1453;DHT22;720;47.738;7.998;2023-08-31T05:18:36;13.10;99.90
1453;DHT22;720;47.738;7.998;2023-08-31T05:21:02;13.10;99.90
1453;DHT22;720;47.738;7.998;2023-08-31T05:25:55;13.20;99.90
1453;DHT22;720;47.738;7.998;2023-08-31T05:28:22;13.20;99.90
1453;DHT22;720;47.738;7.998;2023-08-31T05:30:54;13.20;99.90
1453;DHT22;720;47.738;7.998;2023-08-31T05:33:20;13.20;99.90
1453;DHT22;720;47.738;7.998;2023-08-31T05:35:47;13.30;99.90
1453;DHT22;720;47.738;7.998;2023-08-31T05:38:13;13.40;99.90
1453;DHT22;720;47.738;7.998;2023-08-31T05:40:39;13.50;99.90
1453;DHT22;720;47.738;7.998;2023-08-31T05:43:07;13.60;99.90
1453;DHT22;720;47.738;7.998;2023-08-31T05:45:33;13.70;99.90
1453;DHT22;720;47.738;7.998;2023-08-31T05:47:59;13.80;99.90
1453;DHT22;720;47.738;7.998;2023-08-31T05:50:26;13.80;99.90
1453;DHT22;720;47.738;7.998;2023-08-31T05:52:52;13.90;99.90
1453;DHT22;720;47.738;7.998;2023-08-31T05:55:17;14.00;99.90
1453;DHT22;720;47.738;7.998;2023-08-31T05:57:43;14.10;99.90
1453;DHT22;720;47.738;7.998;2023-08-31T06:00:09;14.20;99.90
1453;DHT22;720;47.738;7.998;2023-08-31T06:02:35;14.20;99.90
1453;DHT22;720;47.738;7.998;2023-08-31T06:05:01;14.10;99.90
1453;DHT22;720;47.738;7.998;2023-08-31T06:07:27;14.00;99.90
1453;DHT22;720;47.738;7.998;2023-08-31T06:09:55;14.00;99.90
1453;DHT22;720;47.738;7.998;2023-08-31T06:12:20;13.90;99.90
1453;DHT22;720;47.738;7.998;2023-08-31T06:14:46;13.90;99.90
1453;DHT22;720;47.738;7.998;2023-08-31T06:17:11;13.90;99.90
1453;DHT22;720;47.738;7.998;2023-08-31T06:19:39;13.70;99.90
1453;DHT22;720;47.738;7.998;2023-08-31T06:22:04;13.60;99.90
1453;DHT22;720;47.738;7.998;2023-08-31T06:24:30;13.50;99.90
1453;DHT22;720;47.738;7.998;2023-08-31T06:26:57;13.90;99.90
1453;DHT22;720;47.738;7.998;2023-08-31T06:29:23;14.00;99.90
1453;DHT22;720;47.738;7.998;2023-08-31T06:31:49;14.20;99.90
1453;DHT22;720;47.738;7.998;2023-08-31T06:34:14;14.20;99.90
1453;DHT22;720;47.738;7.998;2023-08-31T06:36:40;14.40;99.90
1453;DHT22;720;47.738;7.998;2023-08-31T06:39:08;14.40;99.90
1453;DHT22;720;47.738;7.998;2023-08-31T06:41:34;14.60;99.90
1453;DHT22;720;47.738;7.998;2023-08-31T06:44:00;14.70;99.90
1453;DHT22;720;47.738;7.998;2023-08-31T06:46:25;14.70;99.90
1453;DHT22;720;47.738;7.998;2023-08-31T06:48:51;14.70;99.90
1453;DHT22;720;47.738;7.998;2023-08-31T06:51:17;14.80;99.90
1453;DHT22;720;47.738;7.998;2023-08-31T06:53:43;14.80;99.90
1453;DHT22;720;47.738;7.998;2023-08-31T06:56:09;14.90;99.90
1453;DHT22;720;47.738;7.998;2023-08-31T06:58:35;14.90;99.90
1453;DHT22;720;47.738;7.998;2023-08-31T07:01:05;14.90;99.90
1453;DHT22;720;47.738;7.998;2023-08-31T07:17:19;15.60;99.60
1453;DHT22;720;47.738;7.998;2023-08-31T07:19:45;15.60;99.90
1453;DHT22;720;47.738;7.998;2023-08-31T07:22:10;15.70;99.90
1453;DHT22;720;47.738;7.998;2023-08-31T07:24:36;15.90;99.90
1453;DHT22;720;47.738;7.998;2023-08-31T07:27:04;16.00;99.50
1453;DHT22;720;47.738;7.998;2023-08-31T07:29:31;16.00;99.10
1453;DHT22;720;47.738;7.998;2023-08-31T07:31:57;16.10;98.40
1453;DHT22;720;47.738;7.998;2023-08-31T07:34:23;16.20;98.70
1453;DHT22;720;47.738;7.998;2023-08-31T07:36:49;16.40;98.60
1453;DHT22;720;47.738;7.998;2023-08-31T07:39:14;16.50;97.60
1453;DHT22;720;47.738;7.998;2023-08-31T07:41:43;16.90;98.40
1453;DHT22;720;47.738;7.998;2023-08-31T07:44:08;17.70;96.40
1453;DHT22;720;47.738;7.998;2023-08-31T07:46:34;19.00;95.20
1453;DHT22;720;47.738;7.998;2023-08-31T07:49:00;20.50;94.20
1453;DHT22;720;47.738;7.998;2023-08-31T07:51:25;22.10;92.10
1453;DHT22;720;47.738;7.998;2023-08-31T07:53:51;23.90;87.80
1453;DHT22;720;47.738;7.998;2023-08-31T07:56:17;24.60;80.80
1453;DHT22;720;47.738;7.998;2023-08-31T07:58:42;25.50;76.70
1453;DHT22;720;47.738;7.998;2023-08-31T08:01:08;27.10;72.80
1453;DHT22;720;47.738;7.998;2023-08-31T08:03:33;28.20;64.20
1453;DHT22;720;47.738;7.998;2023-08-31T08:05:59;29.30;57.80
1453;DHT22;720;47.738;7.998;2023-08-31T08:10:54;29.50;51.50
1453;DHT22;720;47.738;7.998;2023-08-31T08:13:20;29.00;52.80
1453;DHT22;720;47.738;7.998;2023-08-31T08:15:46;27.90;52.60
1453;DHT22;720;47.738;7.998;2023-08-31T08:18:12;26.70;55.40
1453;DHT22;720;47.738;7.998;2023-08-31T08:20:37;26.70;59.20
1453;DHT22;720;47.738;7.998;2023-08-31T08:23:05;26.60;57.40
1453;DHT22;720;47.738;7.998;2023-08-31T08:25:31;26.50;58.00
1453;DHT22;720;47.738;7.998;2023-08-31T08:27:57;26.70;54.30
1453;DHT22;720;47.738;7.998;2023-08-31T08:30:23;26.80;55.10
1453;DHT22;720;47.738;7.998;2023-08-31T08:32:49;27.10;55.50
1453;DHT22;720;47.738;7.998;2023-08-31T08:35:14;26.70;55.70
1453;DHT22;720;47.738;7.998;2023-08-31T08:37:40;26.90;55.40
1453;DHT22;720;47.738;7.998;2023-08-31T08:40:06;27.10;57.40
1453;DHT22;720;47.738;7.998;2023-08-31T08:42:33;26.80;54.80
1453;DHT22;720;47.738;7.998;2023-08-31T08:45:05;26.00;55.40
1453;DHT22;720;47.738;7.998;2023-08-31T08:47:34;24.50;84.50
1453;DHT22;720;47.738;7.998;2023-08-31T08:49:59;24.30;58.80
1453;DHT22;720;47.738;7.998;2023-08-31T08:52:26;23.80;62.20
1453;DHT22;720;47.738;7.998;2023-08-31T08:54:52;23.50;61.30
1453;DHT22;720;47.738;7.998;2023-08-31T08:57:19;22.40;79.90
1453;DHT22;720;47.738;7.998;2023-08-31T08:59:44;22.60;61.60
1453;DHT22;720;47.738;7.998;2023-08-31T09:02:10;22.00;64.20
1453;DHT22;720;47.738;7.998;2023-08-31T09:04:37;21.70;63.40
1453;DHT22;720;47.738;7.998;2023-08-31T09:07:03;21.40;69.60
1453;DHT22;720;47.738;7.998;2023-08-31T09:09:29;21.10;71.70
1453;DHT22;720;47.738;7.998;2023-08-31T09:11:54;21.10;70.90
1453;DHT22;720;47.738;7.998;2023-08-31T09:14:23;20.80;70.10
1453;DHT22;720;47.738;7.998;2023-08-31T09:16:50;20.30;69.80
1453;DHT22;720;47.738;7.998;2023-08-31T09:19:23;20.10;72.90
1453;DHT22;720;47.738;7.998;2023-08-31T09:21:50;19.00;72.00
1453;DHT22;720;47.738;7.998;2023-08-31T09:24:17;18.50;74.60
1453;DHT22;720;47.738;7.998;2023-08-31T09:26:57;18.50;78.40
1453;DHT22;720;47.738;7.998;2023-08-31T09:29:24;18.60;78.60
1453;DHT22;720;47.738;7.998;2023-08-31T09:31:49;18.80;77.20
1453;DHT22;720;47.738;7.998;2023-08-31T09:34:16;18.80;78.60
1453;DHT22;720;47.738;7.998;2023-08-31T09:36:42;18.80;77.20
1453;DHT22;720;47.738;7.998;2023-08-31T09:39:09;18.90;81.30
1453;DHT22;720;47.738;7.998;2023-08-31T09:41:35;19.20;79.80
1453;DHT22;720;47.738;7.998;2023-08-31T09:44:17;19.10;77.90
1453;DHT22;720;47.738;7.998;2023-08-31T09:46:44;19.40;78.90
1453;DHT22;720;47.738;7.998;2023-08-31T09:49:14;19.70;77.90
1453;DHT22;720;47.738;7.998;2023-08-31T09:51:43;19.20;79.80
1453;DHT22;720;47.738;7.998;2023-08-31T09:54:18;19.50;78.80
1453;DHT22;720;47.738;7.998;2023-08-31T09:56:46;19.20;81.00
1453;DHT22;720;47.738;7.998;2023-08-31T09:59:14;18.80;80.40
1453;DHT22;720;47.738;7.998;2023-08-31T10:01:40;18.50;82.50
1453;DHT22;720;47.738;7.998;2023-08-31T10:04:07;18.20;84.60
1453;DHT22;720;47.738;7.998;2023-08-31T10:06:35;18.10;83.90
1453;DHT22;720;47.738;7.998;2023-08-31T10:09:03;18.10;85.60
1453;DHT22;720;47.738;7.998;2023-08-31T10:11:29;18.10;85.20
1453;DHT22;720;47.738;7.998;2023-08-31T10:13:57;18.30;84.30
1453;DHT22;720;47.738;7.998;2023-08-31T10:16:25;18.60;85.20
1453;DHT22;720;47.738;7.998;2023-08-31T10:18:52;18.80;85.00
1453;DHT22;720;47.738;7.998;2023-08-31T10:21:19;19.00;84.70
1453;DHT22;720;47.738;7.998;2023-08-31T10:23:45;19.00;83.70
1453;DHT22;720;47.738;7.998;2023-08-31T10:26:11;19.00;82.00
1453;DHT22;720;47.738;7.998;2023-08-31T10:28:43;18.70;81.90
1453;DHT22;720;47.738;7.998;2023-08-31T10:31:19;18.90;84.40
1453;DHT22;720;47.738;7.998;2023-08-31T10:36:41;18.90;84.00
1453;DHT22;720;47.738;7.998;2023-08-31T10:39:15;19.10;82.60
1453;DHT22;720;47.738;7.998;2023-08-31T10:41:41;19.20;81.10
1453;DHT22;720;47.738;7.998;2023-08-31T10:44:24;19.40;82.10
1453;DHT22;720;47.738;7.998;2023-08-31T10:46:51;19.60;81.40
1453;DHT22;720;47.738;7.998;2023-08-31T10:49:18;19.50;79.30
1453;DHT22;720;47.738;7.998;2023-08-31T10:51:48;19.40;76.50
1453;DHT22;720;47.738;7.998;2023-08-31T10:54:22;19.40;77.20
1453;DHT22;720;47.738;7.998;2023-08-31T10:59:21;18.90;83.90
1453;DHT22;720;47.738;7.998;2023-08-31T11:01:56;18.90;82.00
1453;DHT22;720;47.738;7.998;2023-08-31T11:04:26;19.10;80.50
1453;DHT22;720;47.738;7.998;2023-08-31T11:07:17;19.00;79.00
1453;DHT22;720;47.738;7.998;2023-08-31T11:09:44;19.00;80.80
1453;DHT22;720;47.738;7.998;2023-08-31T11:12:10;19.00;82.80
1453;DHT22;720;47.738;7.998;2023-08-31T11:14:37;19.30;84.60
1453;DHT22;720;47.738;7.998;2023-08-31T11:17:03;19.60;84.10
1453;DHT22;720;47.738;7.998;2023-08-31T11:19:31;20.00;82.00
1453;DHT22;720;47.738;7.998;2023-08-31T11:21:58;19.80;78.70
1453;DHT22;720;47.738;7.998;2023-08-31T11:26:51;19.60;78.10
1453;DHT22;720;47.738;7.998;2023-08-31T11:29:18;19.70;78.40
1453;DHT22;720;47.738;7.998;2023-08-31T11:31:44;19.70;80.00
1453;DHT22;720;47.738;7.998;2023-08-31T11:34:17;19.80;77.70
1453;DHT22;720;47.738;7.998;2023-08-31T11:36:46;20.10;79.00
1453;DHT22;720;47.738;7.998;2023-08-31T11:39:12;20.20;76.90
1453;DHT22;720;47.738;7.998;2023-08-31T11:41:38;19.90;77.80
1453;DHT22;720;47.738;7.998;2023-08-31T11:44:12;19.60;79.40
1453;DHT22;720;47.738;7.998;2023-08-31T11:46:39;19.70;79.00
1453;DHT22;720;47.738;7.998;2023-08-31T11:49:07;19.80;83.10
1453;DHT22;720;47.738;7.998;2023-08-31T11:51:34;19.90;78.30
1453;DHT22;720;47.738;7.998;2023-08-31T11:54:04;20.00;79.70
1453;DHT22;720;47.738;7.998;2023-08-31T11:56:43;20.00;79.10
1453;DHT22;720;47.738;7.998;2023-08-31T11:59:12;19.90;80.30
1453;DHT22;720;47.738;7.998;2023-08-31T12:01:41;19.80;83.20
1453;DHT22;720;47.738;7.998;2023-08-31T12:04:20;19.60;83.80
1453;DHT22;720;47.738;7.998;2023-08-31T12:06:50;19.60;82.70
1453;DHT22;720;47.738;7.998;2023-08-31T12:09:16;19.80;83.50
1453;DHT22;720;47.738;7.998;2023-08-31T12:11:41;20.00;82.20
1453;DHT22;720;47.738;7.998;2023-08-31T12:14:23;20.20;81.10
1453;DHT22;720;47.738;7.998;2023-08-31T12:16:51;20.50;82.70
1453;DHT22;720;47.738;7.998;2023-08-31T12:19:17;20.50;80.90
1453;DHT22;720;47.738;7.998;2023-08-31T12:21:44;20.70;82.90
1453;DHT22;720;47.738;7.998;2023-08-31T12:24:11;20.80;78.70
1453;DHT22;720;47.738;7.998;2023-08-31T12:26:37;20.80;78.40
1453;DHT22;720;47.738;7.998;2023-08-31T12:29:03;21.00;74.70
1453;DHT22;720;47.738;7.998;2023-08-31T12:31:32;21.00;75.40
1453;DHT22;720;47.738;7.998;2023-08-31T12:33:59;21.00;76.20
1453;DHT22;720;47.738;7.998;2023-08-31T12:36:32;21.00;75.20
1453;DHT22;720;47.738;7.998;2023-08-31T12:41:27;20.00;77.40
1453;DHT22;720;47.738;7.998;2023-08-31T12:43:54;20.00;77.40
1453;DHT22;720;47.738;7.998;2023-08-31T12:48:45;20.30;80.00
1453;DHT22;720;47.738;7.998;2023-08-31T12:51:11;20.50;79.70
1453;DHT22;720;47.738;7.998;2023-08-31T12:53:40;20.50;76.80
1453;DHT22;720;47.738;7.998;2023-08-31T12:56:05;20.50;79.00
1453;DHT22;720;47.738;7.998;2023-08-31T12:58:32;20.30;77.20
1453;DHT22;720;47.738;7.998;2023-08-31T13:00:58;20.40;77.10
1453;DHT22;720;47.738;7.998;2023-08-31T13:03:24;20.10;78.10
1453;DHT22;720;47.738;7.998;2023-08-31T13:05:50;20.10;77.60
1453;DHT22;720;47.738;7.998;2023-08-31T13:08:16;20.30;81.00
1453;DHT22;720;47.738;7.998;2023-08-31T13:10:42;20.50;81.50
1453;DHT22;720;47.738;7.998;2023-08-31T13:13:08;20.30;80.70
1453;DHT22;720;47.738;7.998;2023-08-31T13:15:33;20.40;77.90
1453;DHT22;720;47.738;7.998;2023-08-31T13:17:59;20.30;78.50
1453;DHT22;720;47.738;7.998;2023-08-31T13:20:25;20.20;80.10
1453;DHT22;720;47.738;7.998;2023-08-31T13:22:52;20.10;78.00
1453;DHT22;720;47.738;7.998;2023-08-31T13:25:18;20.20;81.00
1453;DHT22;720;47.738;7.998;2023-08-31T13:27:44;20.00;75.10
1453;DHT22;720;47.738;7.998;2023-08-31T13:30:10;19.90;77.00
1453;DHT22;720;47.738;7.998;2023-08-31T13:32:38;19.80;81.40
1453;DHT22;720;47.738;7.998;2023-08-31T13:35:04;19.90;82.70
1453;DHT22;720;47.738;7.998;2023-08-31T13:37:33;18.80;97.00
1453;DHT22;720;47.738;7.998;2023-08-31T13:39:59;18.90;78.30
1453;DHT22;720;47.738;7.998;2023-08-31T13:42:25;18.90;79.00
1453;DHT22;720;47.738;7.998;2023-08-31T13:44:51;19.00;80.60
1453;DHT22;720;47.738;7.998;2023-08-31T13:49:43;19.40;76.60
1453;DHT22;720;47.738;7.998;2023-08-31T13:52:09;19.70;76.10
1453;DHT22;720;47.738;7.998;2023-08-31T13:54:36;19.80;76.20
1453;DHT22;720;47.738;7.998;2023-08-31T13:57:01;19.90;76.50
1453;DHT22;720;47.738;7.998;2023-08-31T13:59:27;19.90;76.70
1453;DHT22;720;47.738;7.998;2023-08-31T14:04:19;20.00;76.70
1453;DHT22;720;47.738;7.998;2023-08-31T14:09:11;20.10;75.90
1453;DHT22;720;47.738;7.998;2023-08-31T14:11:36;20.00;78.00
1453;DHT22;720;47.738;7.998;2023-08-31T14:14:06;20.10;76.20
1453;DHT22;720;47.738;7.998;2023-08-31T14:16:36;20.10;76.40
1453;DHT22;720;47.738;7.998;2023-08-31T14:19:03;20.20;75.10
1453;DHT22;720;47.738;7.998;2023-08-31T14:21:29;20.10;74.70
1453;DHT22;720;47.738;7.998;2023-08-31T14:23:54;20.10;78.50
1453;DHT22;720;47.738;7.998;2023-08-31T14:26:24;20.10;76.60
1453;DHT22;720;47.738;7.998;2023-08-31T14:28:51;20.10;78.10
1453;DHT22;720;47.738;7.998;2023-08-31T14:31:18;20.10;75.40
1453;DHT22;720;47.738;7.998;2023-08-31T14:33:44;20.00;78.70
1453;DHT22;720;47.738;7.998;2023-08-31T14:36:09;19.80;73.60
1453;DHT22;720;47.738;7.998;2023-08-31T14:38:35;19.80;74.90
1453;DHT22;720;47.738;7.998;2023-08-31T14:41:01;19.80;80.10
1453;DHT22;720;47.738;7.998;2023-08-31T14:43:27;19.60;77.00
1453;DHT22;720;47.738;7.998;2023-08-31T14:45:52;19.60;77.60
1453;DHT22;720;47.738;7.998;2023-08-31T14:48:18;19.60;75.60
1453;DHT22;720;47.738;7.998;2023-08-31T14:50:44;19.70;79.50
1453;DHT22;720;47.738;7.998;2023-08-31T14:53:10;19.70;76.10
1453;DHT22;720;47.738;7.998;2023-08-31T14:55:36;19.90;73.90
1453;DHT22;720;47.738;7.998;2023-08-31T14:58:04;20.00;76.20
1453;DHT22;720;47.738;7.998;2023-08-31T15:00:31;20.10;75.80
1453;DHT22;720;47.738;7.998;2023-08-31T15:02:57;20.00;75.90
1453;DHT22;720;47.738;7.998;2023-08-31T15:05:22;19.90;75.80
1453;DHT22;720;47.738;7.998;2023-08-31T15:07:51;19.80;75.30
1453;DHT22;720;47.738;7.998;2023-08-31T15:10:16;19.80;74.20
1453;DHT22;720;47.738;7.998;2023-08-31T15:12:43;19.70;74.40
1453;DHT22;720;47.738;7.998;2023-08-31T15:15:09;19.70;78.10
1453;DHT22;720;47.738;7.998;2023-08-31T15:17:35;19.20;94.90
1453;DHT22;720;47.738;7.998;2023-08-31T15:20:01;19.20;74.20
1453;DHT22;720;47.738;7.998;2023-08-31T15:22:27;19.00;76.20
1453;DHT22;720;47.738;7.998;2023-08-31T15:24:52;18.80;77.20
1453;DHT22;720;47.738;7.998;2023-08-31T15:27:19;18.90;76.80
1453;DHT22;720;47.738;7.998;2023-08-31T15:29:44;19.00;79.90
1453;DHT22;720;47.738;7.998;2023-08-31T15:32:10;19.00;82.80
1453;DHT22;720;47.738;7.998;2023-08-31T15:34:36;19.10;76.50
1453;DHT22;720;47.738;7.998;2023-08-31T15:37:02;19.20;78.70
1453;DHT22;720;47.738;7.998;2023-08-31T15:39:28;19.20;80.60
1453;DHT22;720;47.738;7.998;2023-08-31T15:41:54;19.20;78.50
1453;DHT22;720;47.738;7.998;2023-08-31T15:44:19;19.20;77.40
1453;DHT22;720;47.738;7.998;2023-08-31T15:46:45;19.30;77.20
1453;DHT22;720;47.738;7.998;2023-08-31T15:49:11;19.20;76.50
1453;DHT22;720;47.738;7.998;2023-08-31T15:51:36;19.10;75.60
1453;DHT22;720;47.738;7.998;2023-08-31T15:54:02;19.00;76.80
1453;DHT22;720;47.738;7.998;2023-08-31T15:56:30;18.90;79.80
1453;DHT22;720;47.738;7.998;2023-08-31T15:58:55;18.80;81.80
1453;DHT22;720;47.738;7.998;2023-08-31T16:01:23;18.80;83.90
1453;DHT22;720;47.738;7.998;2023-08-31T16:03:49;18.70;79.50
1453;DHT22;720;47.738;7.998;2023-08-31T16:06:15;18.50;78.70
1453;DHT22;720;47.738;7.998;2023-08-31T16:11:06;18.40;81.30
1453;DHT22;720;47.738;7.998;2023-08-31T16:15:59;18.40;80.20
1453;DHT22;720;47.738;7.998;2023-08-31T16:18:26;18.20;86.20
1453;DHT22;720;47.738;7.998;2023-08-31T16:20:52;17.60;99.90
1453;DHT22;720;47.738;7.998;2023-08-31T16:23:17;17.70;91.00
1453;DHT22;720;47.738;7.998;2023-08-31T16:25:43;17.50;91.60
1453;DHT22;720;47.738;7.998;2023-08-31T16:28:10;17.30;92.30
1453;DHT22;720;47.738;7.998;2023-08-31T16:33:02;16.90;94.60
1453;DHT22;720;47.738;7.998;2023-08-31T16:37:54;16.70;96.30
1453;DHT22;720;47.738;7.998;2023-08-31T16:40:20;16.50;97.50
1453;DHT22;720;47.738;7.998;2023-08-31T16:42:46;16.30;98.20
1453;DHT22;720;47.738;7.998;2023-08-31T16:45:12;16.20;99.10
1453;DHT22;720;47.738;7.998;2023-08-31T16:47:38;15.80;99.90
1453;DHT22;720;47.738;7.998;2023-08-31T16:50:04;16.00;99.90
1453;DHT22;720;47.738;7.998;2023-08-31T16:52:30;15.90;99.90
1453;DHT22;720;47.738;7.998;2023-08-31T16:54:56;15.80;99.90
1453;DHT22;720;47.738;7.998;2023-08-31T16:57:23;15.80;99.90
1453;DHT22;720;47.738;7.998;2023-08-31T16:59:49;15.60;99.90
1453;DHT22;720;47.738;7.998;2023-08-31T17:02:15;15.50;99.90
1453;DHT22;720;47.738;7.998;2023-08-31T17:04:40;15.60;99.90
1453;DHT22;720;47.738;7.998;2023-08-31T17:07:06;15.70;99.90
1453;DHT22;720;47.738;7.998;2023-08-31T17:09:32;15.70;99.90
1453;DHT22;720;47.738;7.998;2023-08-31T17:11:57;15.90;99.90